Time;durP1;ratioP1;P1;durP2;ratioP2;P2;SDS_P1;SDS_P2;PMS_P1;PMS_P2;Temp;Humidity;BMP_temperature;BMP_pressure;BME280_temperature;BME280_humidity;BME280_pressure;Samples;Min_cycle;Max_cycle;Signal;HPM_P1;HPM_P2
2020/12/04 00:00:09;;;;;;;34.23;18.50;;;0.90;99.90;;;;;;5058696;28;20475;-61
2020/12/04 00:02:36;;;;;;;36.03;18.13;;;0.90;99.90;;;;;;5057849;28;20928;-61
2020/12/04 00:05:02;;;;;;;35.00;19.23;;;0.90;99.90;;;;;;5057171;28;20459;-63
2020/12/04 00:07:28;;;;;;;31.97;17.90;;;0.90;99.90;;;;;;5060328;28;20481;-60
2020/12/04 00:09:55;;;;;;;31.93;16.17;;;0.90;99.90;;;;;;5058763;28;20454;-60
2020/12/04 00:12:21;;;;;;;31.00;17.80;;;0.90;99.90;;;;;;5058487;28;20463;-62
2020/12/04 00:14:51;;;;;;;32.50;17.40;;;0.90;99.90;;;;;;5060361;28;20479;-61
2020/12/04 00:17:17;;;;;;;36.30;18.80;;;0.90;99.90;;;;;;5059552;28;20873;-62
2020/12/04 00:19:43;;;;;;;33.20;17.90;;;0.90;99.90;;;;;;5060908;28;20459;-62
2020/12/04 00:22:09;;;;;;;32.50;17.20;;;0.90;99.90;;;;;;5058969;28;20485;-61
2020/12/04 00:24:35;;;;;;;34.50;18.00;;;0.90;99.90;;;;;;5058701;28;20451;-62
2020/12/04 00:27:02;;;;;;;35.20;18.30;;;0.80;99.90;;;;;;5056664;28;20924;-63
2020/12/04 00:29:28;;;;;;;34.93;18.00;;;0.80;99.90;;;;;;5059019;28;20516;-61
2020/12/04 00:31:57;;;;;;;32.97;17.27;;;0.80;99.90;;;;;;5063324;28;20451;-61
2020/12/04 00:34:24;;;;;;;37.17;17.30;;;0.80;99.90;;;;;;5062122;28;20527;-60
2020/12/04 00:36:51;;;;;;;33.67;17.90;;;0.80;99.90;;;;;;5061797;28;20455;-60
2020/12/04 00:39:18;;;;;;;35.27;17.63;;;0.80;99.90;;;;;;5061143;28;20548;-61
2020/12/04 00:41:45;;;;;;;32.63;17.10;;;0.80;99.90;;;;;;5058783;28;20451;-61
2020/12/04 00:44:12;;;;;;;29.67;15.93;;;0.80;99.90;;;;;;5058676;28;20463;-61
2020/12/04 00:46:38;;;;;;;35.33;18.30;;;0.70;99.90;;;;;;5059651;28;20447;-61
2020/12/04 00:49:05;;;;;;;27.40;16.13;;;0.70;99.90;;;;;;5057734;28;20470;-61
2020/12/04 00:51:32;;;;;;;39.53;16.70;;;0.70;99.90;;;;;;5057430;28;20451;-59
2020/12/04 00:53:58;;;;;;;29.47;16.03;;;0.60;99.90;;;;;;5056735;28;20855;-60
2020/12/04 00:56:31;;;;;;;33.40;16.40;;;0.70;99.90;;;;;;5057330;28;20483;-60
2020/12/04 00:58:57;;;;;;;30.57;17.07;;;0.70;99.90;;;;;;5058260;28;20470;-61
2020/12/04 01:01:23;;;;;;;30.90;16.07;;;0.60;99.90;;;;;;5055895;28;20940;-60
2020/12/04 01:03:50;;;;;;;31.83;17.20;;;0.60;99.90;;;;;;5058335;28;20508;-59
2020/12/04 01:06:16;;;;;;;28.83;14.70;;;0.60;99.90;;;;;;5055970;28;20510;-59
2020/12/04 01:08:43;;;;;;;30.37;16.47;;;0.60;99.90;;;;;;5056299;28;20451;-60
2020/12/04 01:11:10;;;;;;;27.90;15.97;;;0.60;99.90;;;;;;5056555;28;20459;-59
2020/12/04 01:13:36;;;;;;;31.40;16.90;;;0.60;99.90;;;;;;5055685;28;20451;-59
2020/12/04 01:16:02;;;;;;;30.43;16.40;;;0.60;99.90;;;;;;5056997;28;20483;-60
2020/12/04 01:18:29;;;;;;;29.43;15.40;;;0.60;99.90;;;;;;5056803;28;20528;-61
2020/12/04 01:20:55;;;;;;;31.03;16.67;;;0.60;99.90;;;;;;5057979;28;20802;-60
2020/12/04 01:23:22;;;;;;;28.03;15.43;;;0.60;99.90;;;;;;5056718;28;20517;-60
2020/12/04 01:25:48;;;;;;;34.30;15.50;;;0.60;99.90;;;;;;5056348;28;20521;-60
2020/12/04 01:28:14;;;;;;;30.93;15.87;;;0.60;99.90;;;;;;5056589;28;20788;-61
2020/12/04 01:30:43;;;;;;;29.57;14.93;;;0.60;99.90;;;;;;5056964;28;20455;-61
2020/12/04 01:33:09;;;;;;;24.27;15.73;;;0.50;99.90;;;;;;5049796;28;20447;-60
2020/12/04 01:35:35;;;;;;;28.43;14.17;;;0.50;99.90;;;;;;5057953;28;20519;-60
2020/12/04 01:38:01;;;;;;;25.03;15.27;;;0.50;99.90;;;;;;5060162;28;20479;-59
2020/12/04 01:40:31;;;;;;;24.20;14.87;;;0.50;99.90;;;;;;5057233;28;20455;-61
2020/12/04 01:42:57;;;;;;;24.47;14.70;;;0.60;99.90;;;;;;5056668;28;20447;-61
2020/12/04 01:45:23;;;;;;;32.97;17.10;;;0.50;99.90;;;;;;5057361;28;20481;-62
2020/12/04 01:47:50;;;;;;;31.90;16.03;;;0.50;99.90;;;;;;5057617;28;20455;-63
2020/12/04 01:50:16;;;;;;;31.53;15.30;;;0.50;99.90;;;;;;5056872;28;20781;-61
2020/12/04 01:52:43;;;;;;;28.13;14.80;;;0.60;99.90;;;;;;5059190;28;20532;-61
2020/12/04 01:55:09;;;;;;;30.10;16.53;;;0.60;99.90;;;;;;5060672;28;20498;-61
2020/12/04 01:57:43;;;;;;;33.60;17.23;;;0.60;99.90;;;;;;5060668;28;20949;-61
2020/12/04 02:00:09;;;;;;;26.67;16.80;;;0.60;99.90;;;;;;5060953;28;20526;-61
2020/12/04 02:02:35;;;;;;;29.90;16.40;;;0.60;99.90;;;;;;5061167;28;20528;-61
2020/12/04 02:05:02;;;;;;;26.50;15.73;;;0.50;99.90;;;;;;5063236;28;20455;-61
2020/12/04 02:07:39;;;;;;;28.00;16.17;;;0.50;99.90;;;;;;5060699;28;20455;-61
2020/12/04 02:10:13;;;;;;;29.03;16.87;;;0.50;99.90;;;;;;5059720;28;20438;-61
2020/12/04 02:12:41;;;;;;;30.60;16.70;;;0.50;99.90;;;;;;5060608;28;20450;-61
2020/12/04 02:15:09;;;;;;;32.27;17.43;;;0.50;99.90;;;;;;5060741;28;20536;-61
2020/12/04 02:17:35;;;;;;;34.60;19.03;;;0.50;99.90;;;;;;5060242;28;20841;-60
2020/12/04 02:20:15;;;;;;;32.70;18.03;;;0.40;99.90;;;;;;5060655;28;20455;-61
2020/12/04 02:22:42;;;;;;;27.90;16.00;;;0.50;99.90;;;;;;5060822;28;20893;-60
2020/12/04 02:25:09;;;;;;;31.53;17.60;;;0.50;99.90;;;;;;5060852;28;20837;-62
2020/12/04 02:27:44;;;;;;;34.77;19.07;;;0.50;99.90;;;;;;5060690;28;20462;-62
2020/12/04 02:30:12;;;;;;;32.20;19.13;;;0.50;99.90;;;;;;5058151;28;20504;-62
2020/12/04 02:32:38;;;;;;;33.33;18.57;;;0.50;99.90;;;;;;5058267;28;20451;-62
2020/12/04 02:35:04;;;;;;;35.47;18.27;;;0.50;99.90;;;;;;5058082;28;20540;-61
2020/12/04 02:37:30;;;;;;;30.43;16.80;;;0.40;99.90;;;;;;5057860;28;20508;-62
2020/12/04 02:40:08;;;;;;;32.67;19.17;;;0.50;99.90;;;;;;5066869;28;20466;-62
2020/12/04 02:42:38;;;;;;;31.33;19.50;;;0.40;99.90;;;;;;5075705;28;20466;-60
2020/12/04 02:45:05;;;;;;;35.10;18.27;;;0.40;99.90;;;;;;5073252;28;20515;-61
2020/12/04 02:47:32;;;;;;;32.97;18.50;;;0.40;99.90;;;;;;5074848;28;20443;-65
2020/12/04 02:50:04;;;;;;;33.17;18.63;;;0.40;99.90;;;;;;5074599;28;20459;-63
2020/12/04 02:52:31;;;;;;;35.80;19.03;;;0.50;99.90;;;;;;5067432;28;20451;-62
2020/12/04 02:54:58;;;;;;;33.47;20.40;;;0.50;99.90;;;;;;5057506;28;20536;-63
2020/12/04 02:57:24;;;;;;;33.60;18.73;;;0.50;99.90;;;;;;5061183;28;20463;-61
2020/12/04 02:59:56;;;;;;;30.67;18.30;;;0.50;99.90;;;;;;5065739;28;20455;-61
2020/12/04 03:02:29;;;;;;;33.00;17.53;;;0.50;99.90;;;;;;5071104;28;20884;-63
2020/12/04 03:04:59;;;;;;;29.60;17.20;;;0.50;99.90;;;;;;5072867;28;20466;-63
2020/12/04 03:07:36;;;;;;;36.43;19.20;;;0.60;99.90;;;;;;5073839;28;20502;-63
2020/12/04 03:10:04;;;;;;;32.13;17.63;;;0.60;99.90;;;;;;5070667;28;20447;-61
2020/12/04 03:12:30;;;;;;;30.57;17.43;;;0.60;99.90;;;;;;5057544;28;20826;-60
2020/12/04 03:14:56;;;;;;;30.40;18.13;;;0.60;99.90;;;;;;5057459;28;20487;-60
2020/12/04 03:17:22;;;;;;;29.07;17.50;;;0.70;99.90;;;;;;5057156;28;20458;-62
2020/12/04 03:19:48;;;;;;;32.70;18.77;;;0.70;99.90;;;;;;5057328;28;20982;-61
2020/12/04 03:22:14;;;;;;;28.97;18.13;;;0.70;99.90;;;;;;5057208;28;20451;-61
2020/12/04 03:24:40;;;;;;;30.03;17.43;;;0.70;99.90;;;;;;5057331;28;20487;-61
2020/12/04 03:27:07;;;;;;;33.17;18.03;;;0.80;99.90;;;;;;5056969;28;20455;-60
2020/12/04 03:29:33;;;;;;;32.73;18.50;;;0.80;99.90;;;;;;5056933;28;20455;-60
2020/12/04 03:31:59;;;;;;;32.30;19.10;;;0.80;99.90;;;;;;5056527;28;20909;-61
2020/12/04 03:34:25;;;;;;;30.93;16.30;;;0.80;99.90;;;;;;5056793;28;20455;-60
2020/12/04 03:36:51;;;;;;;29.70;17.37;;;0.80;99.90;;;;;;5056555;28;20479;-60
2020/12/04 03:39:17;;;;;;;38.63;19.73;;;0.80;99.90;;;;;;5057207;28;20533;-61
2020/12/04 03:41:43;;;;;;;28.37;16.30;;;0.80;99.90;;;;;;5056601;28;20459;-60
2020/12/04 03:44:10;;;;;;;30.87;18.23;;;0.80;99.90;;;;;;5056360;28;20550;-60
2020/12/04 03:46:36;;;;;;;28.67;17.03;;;0.80;99.90;;;;;;5056610;28;20509;-60
2020/12/04 03:49:02;;;;;;;28.10;16.87;;;0.80;99.90;;;;;;5057014;28;20467;-60
2020/12/04 03:51:28;;;;;;;31.83;17.77;;;0.90;99.90;;;;;;5059098;28;20447;-60
2020/12/04 03:53:55;;;;;;;26.47;16.27;;;0.90;99.90;;;;;;5058953;28;20455;-60
2020/12/04 03:56:21;;;;;;;26.90;17.50;;;0.90;99.90;;;;;;5058823;28;20494;-60
2020/12/04 03:58:47;;;;;;;29.40;17.80;;;0.90;99.90;;;;;;5058618;28;20542;-60
2020/12/04 04:01:14;;;;;;;27.07;16.70;;;0.90;99.90;;;;;;5058769;28;20451;-64
2020/12/04 04:03:40;;;;;;;29.17;18.60;;;0.90;99.90;;;;;;5058692;28;20846;-61
2020/12/04 04:06:06;;;;;;;26.60;16.60;;;1.00;99.90;;;;;;5058827;28;20781;-61
2020/12/04 04:08:32;;;;;;;30.50;17.47;;;1.00;99.90;;;;;;5059296;28;20835;-61
2020/12/04 04:10:59;;;;;;;29.80;16.60;;;1.00;99.90;;;;;;5058342;28;20770;-61
2020/12/04 04:13:25;;;;;;;27.27;16.87;;;1.00;99.90;;;;;;5056476;28;20516;-61
2020/12/04 04:15:52;;;;;;;25.80;16.57;;;1.00;99.90;;;;;;5055966;28;21005;-60
2020/12/04 04:18:18;;;;;;;29.67;17.53;;;1.00;99.90;;;;;;5056352;28;20462;-61
2020/12/04 04:20:46;;;;;;;25.70;16.17;;;1.00;99.90;;;;;;5056111;28;20451;-61
2020/12/04 04:23:12;;;;;;;32.80;16.70;;;1.00;99.90;;;;;;5056352;28;20462;-61
2020/12/04 04:25:38;;;;;;;26.27;16.80;;;1.00;99.90;;;;;;5055924;28;20524;-60
2020/12/04 04:28:10;;;;;;;29.60;17.50;;;1.00;99.90;;;;;;5055604;28;20516;-60
2020/12/04 04:30:36;;;;;;;31.20;17.23;;;1.00;99.90;;;;;;5055850;28;20436;-60
2020/12/04 04:33:02;;;;;;;28.57;16.30;;;1.00;99.90;;;;;;5055578;28;20463;-60
2020/12/04 04:35:29;;;;;;;31.63;19.37;;;1.00;99.90;;;;;;5055652;28;20490;-61
2020/12/04 04:37:55;;;;;;;30.37;17.33;;;1.10;99.90;;;;;;5055365;28;20811;-60
2020/12/04 04:40:21;;;;;;;31.03;17.20;;;1.10;99.90;;;;;;5055770;28;20521;-60
2020/12/04 04:42:47;;;;;;;32.73;17.63;;;1.10;99.90;;;;;;5055394;28;20455;-61
2020/12/04 04:45:16;;;;;;;27.77;16.60;;;1.10;99.90;;;;;;5055625;28;20455;-61
2020/12/04 04:47:44;;;;;;;30.80;18.77;;;1.10;99.90;;;;;;5055542;28;20463;-59
2020/12/04 04:50:10;;;;;;;36.10;18.47;;;1.20;99.90;;;;;;5055388;28;20924;-60
2020/12/04 04:52:39;;;;;;;28.17;17.10;;;1.20;99.90;;;;;;5056866;28;20513;-61
2020/12/04 04:55:05;;;;;;;26.97;17.00;;;1.20;99.90;;;;;;5056131;28;20485;-60
2020/12/04 04:57:31;;;;;;;33.33;17.47;;;1.20;99.90;;;;;;5055437;28;20508;-59
2020/12/04 04:59:59;;;;;;;30.13;18.33;;;1.20;99.90;;;;;;5055120;28;20913;-60
2020/12/04 05:02:25;;;;;;;30.47;18.00;;;1.20;99.90;;;;;;5055045;28;20451;-61
2020/12/04 05:04:52;;;;;;;27.50;16.97;;;1.20;99.90;;;;;;5054973;28;20455;-60
2020/12/04 05:07:25;;;;;;;32.03;18.43;;;1.20;99.90;;;;;;5055561;28;20932;-61
2020/12/04 05:09:53;;;;;;;29.23;16.40;;;1.10;99.90;;;;;;5055085;28;20747;-60
2020/12/04 05:12:19;;;;;;;30.20;17.10;;;1.10;99.90;;;;;;5055008;28;20516;-60
2020/12/04 05:14:45;;;;;;;35.37;19.13;;;1.00;99.90;;;;;;5055331;28;20447;-61
2020/12/04 05:17:11;;;;;;;28.93;17.63;;;1.00;99.90;;;;;;5055294;28;20487;-60
2020/12/04 05:19:41;;;;;;;35.17;19.33;;;1.00;99.90;;;;;;5055231;28;20485;-59
2020/12/04 05:22:12;;;;;;;30.07;17.33;;;1.00;99.90;;;;;;5055117;28;20474;-60
2020/12/04 05:24:38;;;;;;;34.13;19.57;;;1.00;99.90;;;;;;5055202;28;20505;-60
2020/12/04 05:27:27;;;;;;;31.40;17.30;;;1.00;99.90;;;;;;5056306;28;20521;-62
2020/12/04 05:29:55;;;;;;;32.07;17.77;;;1.00;99.90;;;;;;5058992;28;20431;-64
2020/12/04 05:32:21;;;;;;;27.17;17.77;;;1.00;99.90;;;;;;5059139;28;20521;-62
2020/12/04 05:34:47;;;;;;;31.47;16.73;;;1.00;99.90;;;;;;5058927;28;20542;-62
2020/12/04 05:37:17;;;;;;;32.60;19.60;;;1.00;99.90;;;;;;5058871;28;20483;-62
2020/12/04 05:39:44;;;;;;;34.23;18.77;;;1.00;99.90;;;;;;5058444;28;20475;-62
2020/12/04 05:42:10;;;;;;;28.27;16.80;;;1.10;99.90;;;;;;5059158;28;20725;-62
2020/12/04 05:44:52;;;;;;;29.10;17.17;;;1.10;99.90;;;;;;5058873;28;20459;-62
2020/12/04 05:47:19;;;;;;;30.10;17.30;;;1.10;99.90;;;;;;5058930;28;20443;-61
2020/12/04 05:49:45;;;;;;;33.77;18.67;;;1.10;99.90;;;;;;5059492;28;20454;-62
2020/12/04 05:52:14;;;;;;;29.13;18.47;;;1.10;99.90;;;;;;5060416;28;20537;-62
2020/12/04 05:54:42;;;;;;;31.30;17.80;;;1.10;99.90;;;;;;5061849;28;20497;-62
2020/12/04 05:57:10;;;;;;;29.90;17.40;;;1.10;99.90;;;;;;5061056;28;20913;-64
2020/12/04 05:59:44;;;;;;;30.83;17.80;;;1.10;99.90;;;;;;5060750;28;20475;-61
2020/12/04 06:02:14;;;;;;;27.80;17.20;;;1.10;99.90;;;;;;5060723;28;20443;-62
2020/12/04 06:04:41;;;;;;;38.40;17.73;;;1.20;99.90;;;;;;5058945;28;20755;-63
2020/12/04 06:07:07;;;;;;;27.40;18.20;;;1.20;99.90;;;;;;5058574;28;20513;-63
2020/12/04 06:09:33;;;;;;;23.00;16.50;;;1.20;99.90;;;;;;5058275;28;20840;-63
2020/12/04 06:11:59;;;;;;;29.27;18.27;;;1.30;99.90;;;;;;5058266;28;20512;-64
2020/12/04 06:14:26;;;;;;;26.97;17.70;;;1.30;99.90;;;;;;5058440;28;20508;-63
2020/12/04 06:17:10;;;;;;;29.00;16.83;;;1.30;99.90;;;;;;5058368;28;20482;-63
2020/12/04 06:19:37;;;;;;;27.77;16.47;;;1.30;99.90;;;;;;5058148;28;20903;-62
2020/12/04 06:22:05;;;;;;;28.03;16.63;;;1.30;99.90;;;;;;5058102;28;20520;-61
2020/12/04 06:24:32;;;;;;;34.73;19.80;;;1.30;99.90;;;;;;5058338;28;20834;-63
2020/12/04 06:26:58;;;;;;;26.40;16.37;;;1.30;99.90;;;;;;5058804;28;20447;-63
2020/12/04 06:29:24;;;;;;;30.57;17.83;;;1.40;99.90;;;;;;5057771;28;20909;-62
2020/12/04 06:31:50;;;;;;;27.70;16.67;;;1.40;99.90;;;;;;5058059;28;20459;-63
2020/12/04 06:34:19;;;;;;;27.97;17.10;;;1.40;99.90;;;;;;5058208;28;20464;-62
2020/12/04 06:36:45;;;;;;;32.60;17.20;;;1.40;99.90;;;;;;5057945;28;20507;-62
2020/12/04 06:39:28;;;;;;;27.40;16.43;;;1.40;99.90;;;;;;5057433;28;20483;-62
2020/12/04 06:41:55;;;;;;;28.07;17.47;;;1.40;99.90;;;;;;5057646;28;20450;-62
2020/12/04 06:44:22;;;;;;;30.50;17.50;;;1.40;99.90;;;;;;5057503;28;20475;-62
2020/12/04 06:46:49;;;;;;;30.57;16.67;;;1.40;99.90;;;;;;5060092;28;20521;-62
2020/12/04 06:49:37;;;;;;;28.93;17.53;;;1.40;99.90;;;;;;5059857;28;20451;-62
2020/12/04 06:52:09;;;;;;;28.67;16.77;;;1.50;99.90;;;;;;5057776;28;20820;-61
2020/12/04 06:54:38;;;;;;;28.97;17.87;;;1.60;99.90;;;;;;5057615;28;20435;-63
2020/12/04 06:57:06;;;;;;;29.30;17.30;;;1.60;99.90;;;;;;5057787;28;20483;-62
2020/12/04 06:59:33;;;;;;;28.23;17.37;;;1.60;99.90;;;;;;5057369;28;20577;-62
2020/12/04 07:02:05;;;;;;;27.57;18.07;;;1.60;99.90;;;;;;5057289;28;20461;-62
2020/12/04 07:04:33;;;;;;;31.30;19.37;;;1.60;99.90;;;;;;5057218;28;20910;-63
2020/12/04 07:07:17;;;;;;;29.83;17.40;;;1.70;99.90;;;;;;5057189;28;20447;-63
2020/12/04 07:09:53;;;;;;;31.13;17.50;;;1.70;99.90;;;;;;5057070;28;20435;-64
2020/12/04 07:12:20;;;;;;;30.67;17.43;;;1.70;99.90;;;;;;5056703;28;20912;-63
2020/12/04 07:14:49;;;;;;;29.53;18.87;;;1.70;99.90;;;;;;5056619;28;20447;-62
2020/12/04 07:17:17;;;;;;;29.93;18.00;;;1.70;99.90;;;;;;5056762;28;20544;-63
2020/12/04 07:19:48;;;;;;;28.90;17.43;;;1.70;99.90;;;;;;5057067;28;20459;-63
2020/12/04 07:22:15;;;;;;;27.53;17.00;;;1.70;99.90;;;;;;5057080;28;20451;-63
2020/12/04 07:24:42;;;;;;;29.30;18.63;;;1.80;99.90;;;;;;5058365;28;20829;-62
2020/12/04 07:27:12;;;;;;;31.97;16.57;;;1.80;99.90;;;;;;5057135;28;20447;-60
2020/12/04 07:29:38;;;;;;;32.17;17.40;;;1.80;99.90;;;;;;5057477;28;20459;-63
2020/12/04 07:32:05;;;;;;;27.73;18.20;;;1.80;99.90;;;;;;5056982;28;20460;-63
2020/12/04 07:34:35;;;;;;;32.30;17.57;;;1.90;99.90;;;;;;5057244;28;20870;-61
2020/12/04 07:37:03;;;;;;;29.03;16.37;;;1.90;99.90;;;;;;5056146;28;20477;-64
2020/12/04 07:39:31;;;;;;;26.77;17.37;;;1.90;99.90;;;;;;5055690;28;20552;-63
2020/12/04 07:41:59;;;;;;;34.00;17.53;;;2.00;99.90;;;;;;5056113;28;20451;-62
2020/12/04 07:44:30;;;;;;;27.67;15.80;;;2.00;99.90;;;;;;5056176;28;20748;-64
2020/12/04 07:47:05;;;;;;;25.00;14.77;;;2.00;99.90;;;;;;5055901;28;20512;-62
2020/12/04 07:49:31;;;;;;;28.53;16.77;;;2.10;99.90;;;;;;5055764;28;20504;-63
2020/12/04 07:52:13;;;;;;;25.03;16.33;;;2.10;99.90;;;;;;5055626;28;20832;-62
2020/12/04 07:54:40;;;;;;;24.40;16.13;;;2.10;99.90;;;;;;5055826;28;20546;-62
2020/12/04 07:57:06;;;;;;;27.97;18.60;;;2.20;99.90;;;;;;5056453;28;20479;-62
2020/12/04 07:59:35;;;;;;;29.00;15.97;;;2.10;99.90;;;;;;5060148;28;20512;-63
2020/12/04 08:02:02;;;;;;;24.70;16.60;;;2.20;99.90;;;;;;5061523;28;20459;-62
2020/12/04 08:04:28;;;;;;;30.53;18.37;;;2.20;99.90;;;;;;5063793;28;20451;-62
2020/12/04 08:07:06;;;;;;;22.23;15.30;;;2.30;99.90;;;;;;5063734;28;20489;-62
2020/12/04 08:09:38;;;;;;;28.40;16.47;;;2.30;99.90;;;;;;5058128;28;20470;-62
2020/12/04 08:12:08;;;;;;;30.70;16.47;;;2.30;99.90;;;;;;5056048;28;20447;-63
2020/12/04 08:14:35;;;;;;;27.40;17.27;;;2.40;99.90;;;;;;5055782;28;20440;-62
2020/12/04 08:17:01;;;;;;;28.63;18.17;;;2.40;99.90;;;;;;5055507;28;20479;-62
2020/12/04 08:19:28;;;;;;;27.60;17.10;;;2.50;99.90;;;;;;5055009;28;20455;-63
2020/12/04 08:22:07;;;;;;;28.53;17.60;;;2.50;99.90;;;;;;5055160;28;20463;-62
2020/12/04 08:24:35;;;;;;;26.53;15.63;;;2.60;99.90;;;;;;5055184;28;20439;-62
2020/12/04 08:27:09;;;;;;;29.10;18.27;;;2.70;99.90;;;;;;5057518;28;20923;-63
2020/12/04 08:29:38;;;;;;;25.23;17.20;;;2.80;99.90;;;;;;5056471;28;20502;-63
2020/12/04 08:32:10;;;;;;;27.97;17.33;;;2.90;99.90;;;;;;5055528;28;20450;-62
2020/12/04 08:34:37;;;;;;;27.53;17.93;;;3.00;99.90;;;;;;5054726;28;20454;-61
2020/12/04 08:37:05;;;;;;;30.40;19.40;;;3.10;99.90;;;;;;5055323;28;20502;-63
2020/12/04 08:39:37;;;;;;;27.33;16.87;;;3.10;99.90;;;;;;5055826;28;20552;-63
2020/12/04 08:42:20;;;;;;;25.50;15.60;;;3.20;99.90;;;;;;5056732;28;20463;-62
2020/12/04 08:44:58;;;;;;;28.23;16.20;;;3.30;99.90;;;;;;5056732;28;20780;-62
2020/12/04 08:47:26;;;;;;;27.37;16.30;;;3.40;99.90;;;;;;5055513;28;20901;-63
2020/12/04 08:49:54;;;;;;;26.37;16.37;;;3.40;99.90;;;;;;5055809;28;20455;-62
2020/12/04 08:52:37;;;;;;;22.20;16.03;;;3.50;99.90;;;;;;5056468;28;20719;-63
2020/12/04 08:55:16;;;;;;;22.30;14.60;;;3.50;99.90;;;;;;5057108;28;20466;-62
2020/12/04 08:57:43;;;;;;;23.30;15.07;;;3.60;99.90;;;;;;5057182;28;20517;-63
2020/12/04 09:00:13;;;;;;;28.07;16.00;;;3.70;99.90;;;;;;5055651;28;20784;-61
2020/12/04 09:02:39;;;;;;;28.33;17.13;;;3.70;99.90;;;;;;5054168;28;20462;-59
2020/12/04 09:05:08;;;;;;;22.50;15.90;;;3.80;99.90;;;;;;5054544;28;20451;-61
2020/12/04 09:07:34;;;;;;;24.17;14.93;;;4.00;99.90;;;;;;5054575;28;20839;-60
2020/12/04 09:10:00;;;;;;;21.87;14.20;;;4.10;99.90;;;;;;5054399;28;20455;-62
2020/12/04 09:12:27;;;;;;;25.80;15.97;;;4.10;99.90;;;;;;5054141;28;20932;-60
2020/12/04 09:14:54;;;;;;;24.47;16.93;;;4.20;99.90;;;;;;5054114;28;20459;-59
2020/12/04 09:17:20;;;;;;;22.20;15.87;;;4.40;99.90;;;;;;5054299;28;20487;-60
2020/12/04 09:19:46;;;;;;;24.40;16.07;;;4.40;99.90;;;;;;5054939;28;20455;-60
2020/12/04 09:22:13;;;;;;;21.90;14.53;;;4.40;99.90;;;;;;5054446;28;20459;-60
2020/12/04 09:24:40;;;;;;;25.30;15.77;;;4.50;99.90;;;;;;5054431;28;20462;-61
2020/12/04 09:27:06;;;;;;;20.87;14.83;;;4.50;99.90;;;;;;5054393;28;20451;-60
2020/12/04 09:29:34;;;;;;;25.80;16.73;;;4.40;99.90;;;;;;5054011;28;20459;-60
2020/12/04 09:32:09;;;;;;;23.77;15.00;;;4.40;99.90;;;;;;5054148;28;20490;-61
2020/12/04 09:34:35;;;;;;;22.90;14.73;;;4.40;99.90;;;;;;5054292;28;20880;-60
2020/12/04 09:37:16;;;;;;;23.80;14.63;;;4.50;99.90;;;;;;5054113;28;20823;-61
2020/12/04 09:39:44;;;;;;;22.57;15.17;;;4.50;99.90;;;;;;5053771;28;20478;-61
2020/12/04 09:42:11;;;;;;;22.20;15.93;;;4.60;99.90;;;;;;5054220;28;20463;-60
2020/12/04 09:44:38;;;;;;;21.77;14.90;;;4.60;99.90;;;;;;5054144;28;20466;-61
2020/12/04 09:47:04;;;;;;;20.40;14.50;;;4.70;99.90;;;;;;5054101;28;20501;-60
2020/12/04 09:49:31;;;;;;;23.33;14.50;;;4.80;99.90;;;;;;5054174;28;20455;-60
2020/12/04 09:51:58;;;;;;;23.73;15.93;;;4.80;99.90;;;;;;5053910;28;20455;-60
2020/12/04 09:54:24;;;;;;;21.37;14.70;;;4.90;99.90;;;;;;5053985;28;20508;-61
2020/12/04 09:56:52;;;;;;;25.90;15.30;;;5.00;99.90;;;;;;5053877;28;20513;-61
2020/12/04 09:59:18;;;;;;;27.20;15.87;;;5.00;99.90;;;;;;5054391;28;20601;-61
2020/12/04 10:01:47;;;;;;;21.47;15.57;;;5.00;99.90;;;;;;5053976;28;20451;-61
2020/12/04 10:04:13;;;;;;;27.57;16.83;;;5.00;99.90;;;;;;5055045;28;20455;-61
2020/12/04 10:06:43;;;;;;;22.50;15.60;;;5.00;99.90;;;;;;5054375;28;20461;-61
2020/12/04 10:09:09;;;;;;;26.37;15.53;;;5.00;99.90;;;;;;5055642;28;20467;-60
2020/12/04 10:11:36;;;;;;;22.70;15.10;;;5.10;99.90;;;;;;5053687;28;20451;-60
2020/12/04 10:14:02;;;;;;;20.30;13.97;;;5.10;99.90;;;;;;5055948;28;20490;-60
2020/12/04 10:16:28;;;;;;;20.07;14.40;;;5.10;99.90;;;;;;5058822;28;20540;-60
2020/12/04 10:18:56;;;;;;;19.40;14.00;;;5.10;99.90;;;;;;5058801;28;20485;-60
2020/12/04 10:21:22;;;;;;;23.87;15.60;;;5.10;99.90;;;;;;5059707;28;20998;-60
2020/12/04 10:23:48;;;;;;;20.23;13.80;;;5.20;99.90;;;;;;5059751;28;20451;-61
2020/12/04 10:26:15;;;;;;;22.80;15.70;;;5.30;99.90;;;;;;5059827;28;20454;-61
2020/12/04 10:28:41;;;;;;;21.00;13.90;;;5.30;99.90;;;;;;5058889;28;20832;-61
2020/12/04 10:31:07;;;;;;;24.20;14.23;;;5.30;99.90;;;;;;5058758;28;20772;-61
2020/12/04 10:33:33;;;;;;;17.73;13.40;;;5.30;99.90;;;;;;5057386;28;20509;-61
2020/12/04 10:36:02;;;;;;;22.83;13.60;;;5.10;99.90;;;;;;5059026;28;20866;-61
2020/12/04 10:38:29;;;;;;;22.07;16.23;;;5.10;99.90;;;;;;5060039;28;20474;-61
2020/12/04 10:40:55;;;;;;;23.73;14.93;;;5.10;99.90;;;;;;5059857;28;20451;-60
2020/12/04 10:43:21;;;;;;;21.20;13.47;;;5.20;99.90;;;;;;5058333;28;20589;-60
2020/12/04 10:45:47;;;;;;;20.93;13.23;;;5.20;99.90;;;;;;5057088;28;20494;-61
2020/12/04 10:48:13;;;;;;;20.10;13.83;;;5.30;99.90;;;;;;5057618;28;20900;-61
2020/12/04 10:50:39;;;;;;;18.57;13.50;;;5.30;99.90;;;;;;5056610;28;20524;-61
2020/12/04 10:53:06;;;;;;;20.63;13.90;;;5.40;99.90;;;;;;5056825;28;20462;-61
2020/12/04 10:55:32;;;;;;;18.87;13.83;;;5.50;99.90;;;;;;5056555;28;20908;-61
2020/12/04 10:57:58;;;;;;;21.60;14.30;;;5.50;99.90;;;;;;5057664;28;20510;-60
2020/12/04 11:00:25;;;;;;;23.30;14.40;;;5.60;99.90;;;;;;5058438;28;20463;-60
2020/12/04 11:02:56;;;;;;;21.63;14.70;;;5.60;99.90;;;;;;5059772;28;20451;-61
2020/12/04 11:05:37;;;;;;;20.63;14.77;;;5.60;99.90;;;;;;5060862;28;20439;-60
2020/12/04 11:08:03;;;;;;;22.70;14.30;;;5.60;99.90;;;;;;5059162;28;20512;-62
2020/12/04 11:10:30;;;;;;;21.50;13.37;;;5.60;99.90;;;;;;5056370;28;20542;-60
2020/12/04 11:12:56;;;;;;;22.83;15.10;;;5.60;99.90;;;;;;5056961;28;20451;-60
2020/12/04 11:15:22;;;;;;;20.17;14.10;;;5.70;99.90;;;;;;5056658;28;20454;-60
2020/12/04 11:17:49;;;;;;;19.50;13.77;;;5.60;99.90;;;;;;5057858;28;20483;-61
2020/12/04 11:20:16;;;;;;;19.70;13.83;;;5.70;99.90;;;;;;5056660;28;20451;-60
2020/12/04 11:22:42;;;;;;;19.50;13.77;;;5.80;99.90;;;;;;5057340;28;20451;-61
2020/12/04 11:25:09;;;;;;;21.00;14.67;;;5.80;99.90;;;;;;5047256;28;20455;-60
2020/12/04 11:27:39;;;;;;;22.17;14.40;;;5.90;99.90;;;;;;5056082;28;20840;-61
2020/12/04 11:30:06;;;;;;;19.77;13.37;;;5.90;99.90;;;;;;5055952;28;20435;-61
2020/12/04 11:32:33;;;;;;;19.87;15.47;;;6.00;99.90;;;;;;5055835;28;20935;-60
2020/12/04 11:34:59;;;;;;;20.07;13.77;;;6.00;99.90;;;;;;5056127;28;20835;-61
2020/12/04 11:37:25;;;;;;;21.60;14.00;;;6.00;99.90;;;;;;5055957;28;20560;-62
2020/12/04 11:39:51;;;;;;;21.90;13.90;;;6.10;99.90;;;;;;5055840;28;20455;-61
2020/12/04 11:42:17;;;;;;;20.47;13.80;;;6.10;99.90;;;;;;5055627;28;20451;-61
2020/12/04 11:44:44;;;;;;;18.47;13.40;;;6.00;99.90;;;;;;5056073;28;20451;-61
2020/12/04 11:47:10;;;;;;;20.70;14.30;;;6.00;99.90;;;;;;5055634;28;20455;-60
2020/12/04 11:49:36;;;;;;;21.77;13.40;;;6.10;99.90;;;;;;5055690;28;20451;-60
2020/12/04 11:52:02;;;;;;;21.40;13.67;;;6.00;99.90;;;;;;5055626;28;20463;-61
2020/12/04 11:54:28;;;;;;;31.90;20.70;;;6.10;99.90;;;;;;5055607;28;20455;-61
2020/12/04 11:56:54;;;;;;;20.83;13.90;;;6.30;99.90;;;;;;5055454;28;20544;-60
2020/12/04 11:59:21;;;;;;;16.33;11.20;;;6.60;99.90;;;;;;5055746;28;20515;-60
2020/12/04 12:01:48;;;;;;;19.10;12.67;;;6.90;99.90;;;;;;5055579;28;20461;-61
2020/12/04 12:04:15;;;;;;;23.03;13.70;;;7.10;99.90;;;;;;5055703;28;20466;-59
2020/12/04 12:06:42;;;;;;;17.03;12.13;;;7.20;99.90;;;;;;5055774;28;20534;-61
2020/12/04 12:09:08;;;;;;;16.40;12.23;;;7.20;99.90;;;;;;5047612;28;20451;-61
2020/12/04 12:11:35;;;;;;;18.63;12.60;;;7.20;99.90;;;;;;5057476;28;20455;-63
2020/12/04 12:14:01;;;;;;;18.80;12.53;;;7.10;99.90;;;;;;5055671;28;20920;-60
2020/12/04 12:16:27;;;;;;;20.67;14.40;;;6.90;99.90;;;;;;5055143;28;20510;-61
2020/12/04 12:18:54;;;;;;;21.90;14.23;;;6.90;99.90;;;;;;5055348;28;20451;-61
2020/12/04 12:21:20;;;;;;;18.87;13.10;;;6.90;99.90;;;;;;5056346;28;20451;-63
2020/12/04 12:23:46;;;;;;;19.33;13.13;;;6.90;99.90;;;;;;5056035;28;20455;-62
2020/12/04 12:26:12;;;;;;;18.63;12.87;;;6.90;99.90;;;;;;5055228;28;20451;-63
2020/12/04 12:28:38;;;;;;;18.90;12.70;;;6.90;99.90;;;;;;5055410;28;20455;-64
2020/12/04 12:31:04;;;;;;;17.93;12.80;;;6.90;99.90;;;;;;5055167;28;20459;-65
2020/12/04 12:33:31;;;;;;;19.40;13.20;;;6.80;99.90;;;;;;5054980;28;20982;-63
2020/12/04 12:35:58;;;;;;;15.30;11.77;;;6.70;99.90;;;;;;5055034;28;20581;-63
2020/12/04 12:38:24;;;;;;;19.17;12.30;;;6.60;99.90;;;;;;5055322;28;20483;-60